createdAt,value
2022-08-04T00:02:22.442Z,6.25
2022-08-04T00:04:56.082Z,3.92
2022-08-04T00:07:43.960Z,4.88
2022-08-04T00:10:16.656Z,3.97
2022-08-04T00:12:49.918Z,5.40
2022-08-04T00:15:19.693Z,5.65
2022-08-04T00:18:00.246Z,5.50
2022-08-04T00:20:32.037Z,8.07
2022-08-04T00:23:01.481Z,7.20
2022-08-04T00:25:29.700Z,6.72
2022-08-04T00:27:56.715Z,4.45
2022-08-04T00:30:25.380Z,8.23
2022-08-04T00:32:53.457Z,4.13
2022-08-04T00:35:21.206Z,6.38
2022-08-04T00:37:49.430Z,5.00
2022-08-04T00:40:28.998Z,6.43
2022-08-04T00:43:19.555Z,6.95
2022-08-04T00:46:21.571Z,3.95
2022-08-04T00:49:07.920Z,4.38
2022-08-04T00:51:44.198Z,8.98
2022-08-04T00:54:48.813Z,8.70
2022-08-04T00:57:30.124Z,6.97
2022-08-04T01:00:07.883Z,9.13
2022-08-04T01:02:45.683Z,5.82
2022-08-04T01:05:28.153Z,8.32
2022-08-04T01:08:44.166Z,4.50
2022-08-04T01:11:56.858Z,7.15
2022-08-04T01:14:28.006Z,6.13
2022-08-04T01:17:12.965Z,5.40
2022-08-04T01:19:52.930Z,4.43
2022-08-04T01:22:32.506Z,6.68
2022-08-04T01:25:35.934Z,10.10
2022-08-04T01:28:32.021Z,4.63
2022-08-04T01:31:38.759Z,7.82
2022-08-04T01:34:09.772Z,5.38
2022-08-04T01:36:50.005Z,5.43
2022-08-04T01:39:38.088Z,4.45
2022-08-04T01:42:06.598Z,7.95
2022-08-04T01:44:39.918Z,6.13
2022-08-04T01:47:08.890Z,8.35
2022-08-04T01:49:40.867Z,5.43
2022-08-04T01:52:10.506Z,5.32
2022-08-04T01:54:41.239Z,6.00
2022-08-04T01:57:37.931Z,7.72
2022-08-04T02:00:00.040Z,4.05
2022-08-04T02:02:28.789Z,6.57
2022-08-04T02:04:56.811Z,7.55
2022-08-04T02:08:09.947Z,4.68
2022-08-04T02:11:13.864Z,8.00
2022-08-04T02:14:08.802Z,2.90
2022-08-04T02:16:52.258Z,6.07
2022-08-04T02:19:34.857Z,6.25
2022-08-04T02:22:13.914Z,6.22
2022-08-04T02:24:49.944Z,7.07
2022-08-04T02:27:25.391Z,4.70
2022-08-04T02:30:05.746Z,6.22
2022-08-04T02:32:39.931Z,4.80
2022-08-04T02:35:11.636Z,6.50
2022-08-04T02:37:47.278Z,4.80
2022-08-04T02:40:20.234Z,3.67
2022-08-04T02:42:49.962Z,3.38
2022-08-04T02:45:20.984Z,4.43
2022-08-04T02:48:08.264Z,3.45
2022-08-04T02:50:40.833Z,3.83
2022-08-04T02:53:13.793Z,7.68
2022-08-04T02:55:51.029Z,4.15
2022-08-04T02:58:22.062Z,4.30
2022-08-04T03:00:52.265Z,3.97
2022-08-04T03:03:22.267Z,5.47
2022-08-04T03:06:15.003Z,3.55
2022-08-04T03:09:05.137Z,4.53
2022-08-04T03:11:57.902Z,5.45
2022-08-04T03:14:56.670Z,4.85
2022-08-04T03:17:53.198Z,4.90
2022-08-04T03:20:41.601Z,4.47
2022-08-04T03:23:34.588Z,5.38
2022-08-04T03:26:23.824Z,4.72
2022-08-04T03:29:37.732Z,6.88
2022-08-04T03:32:05.256Z,4.07
2022-08-04T03:34:58.826Z,4.10
2022-08-04T03:38:06.332Z,4.57
2022-08-04T03:40:44.334Z,4.97
2022-08-04T03:43:58.165Z,6.05
2022-08-04T03:46:48.557Z,7.95
2022-08-04T03:49:41.658Z,3.65
2022-08-04T03:53:07.285Z,6.25
2022-08-04T03:55:55.944Z,6.45
2022-08-04T03:58:54.696Z,3.10
2022-08-04T04:01:41.566Z,7.75
2022-08-04T04:05:00.153Z,7.15
2022-08-04T04:07:58.274Z,7.80
2022-08-04T04:10:37.832Z,7.68
2022-08-04T04:13:26.502Z,4.20
2022-08-04T04:16:06.022Z,4.97
2022-08-04T04:18:49.219Z,4.63
2022-08-04T04:21:43.950Z,8.23
2022-08-04T04:24:26.196Z,6.45
2022-08-04T04:27:26.210Z,4.97
2022-08-04T04:30:12.458Z,5.65
2022-08-04T04:33:00.157Z,4.60
2022-08-04T04:35:48.846Z,3.70
2022-08-04T04:38:38.816Z,3.15
2022-08-04T04:41:35.195Z,4.30
2022-08-04T04:44:40.032Z,4.53
2022-08-04T04:48:01.710Z,5.05
2022-08-04T04:50:36.470Z,5.88
2022-08-04T04:53:16.402Z,5.78
2022-08-04T04:55:53.173Z,5.18
2022-08-04T04:58:22.701Z,7.85
2022-08-04T05:01:05.544Z,2.95
2022-08-04T05:03:59.582Z,7.35
2022-08-04T05:06:39.574Z,6.22
2022-08-04T05:09:31.137Z,2.33
2022-08-04T05:12:02.515Z,6.20
2022-08-04T05:14:42.050Z,5.55
2022-08-04T05:17:19.310Z,3.67
2022-08-04T05:20:13.322Z,4.82
2022-08-04T05:23:16.342Z,4.50
2022-08-04T05:25:59.241Z,3.28
2022-08-04T05:28:36.465Z,4.93
2022-08-04T05:31:31.220Z,3.63
2022-08-04T05:34:28.118Z,4.82
2022-08-04T05:37:02.686Z,3.00
2022-08-04T05:39:39.138Z,6.13
2022-08-04T05:42:09.835Z,5.32
2022-08-04T05:44:38.376Z,5.93
2022-08-04T05:47:07.266Z,4.65
2022-08-04T05:49:36.085Z,4.82
2022-08-04T05:52:05.082Z,3.08
2022-08-04T05:54:35.381Z,7.28
2022-08-04T05:57:07.830Z,5.22
2022-08-04T05:59:39.066Z,4.57
2022-08-04T06:02:08.119Z,7.38
2022-08-04T06:04:38.702Z,4.25
2022-08-04T06:07:07.794Z,4.40
2022-08-04T06:09:35.092Z,4.10
2022-08-04T06:12:07.645Z,4.80
2022-08-04T06:14:42.334Z,5.03
2022-08-04T06:18:33.855Z,3.30
2022-08-04T06:20:17.993Z,2.42
2022-08-04T06:22:52.586Z,3.67
2022-08-04T06:25:24.909Z,5.18
2022-08-04T06:27:53.442Z,5.82
2022-08-04T06:30:26.173Z,1.75
2022-08-04T06:33:03.897Z,2.80
2022-08-04T06:35:34.508Z,2.17
2022-08-04T06:38:03.976Z,5.10
2022-08-04T06:40:34.945Z,3.13
2022-08-04T06:43:06.562Z,4.03
2022-08-04T06:45:37.813Z,3.92
2022-08-04T06:48:06.627Z,6.25
2022-08-04T06:51:30.845Z,2.65
2022-08-04T06:53:27.287Z,5.78
2022-08-04T06:55:57.818Z,2.78
2022-08-04T06:58:27.945Z,3.08
2022-08-04T07:01:01.925Z,3.08
2022-08-04T07:03:30.750Z,4.70
2022-08-04T07:06:06.312Z,3.03
2022-08-04T07:08:43.160Z,1.40
2022-08-04T07:11:12.558Z,5.40
2022-08-04T07:13:45.188Z,3.22
2022-08-04T07:16:15.664Z,2.85
2022-08-04T07:18:42.936Z,3.10
2022-08-04T07:21:18.609Z,2.05
2022-08-04T07:23:46.954Z,4.30
2022-08-04T07:26:17.253Z,2.05
2022-08-04T07:28:45.558Z,2.45
2022-08-04T07:31:31.902Z,3.00
2022-08-04T07:34:17.612Z,2.70
2022-08-04T07:36:53.008Z,2.10
2022-08-04T07:39:28.743Z,2.40
2022-08-04T07:41:58.786Z,1.65
2022-08-04T07:44:27.506Z,1.40
2022-08-04T07:46:55.518Z,2.85
2022-08-04T07:49:56.852Z,3.53
2022-08-04T07:52:16.352Z,2.58
2022-08-04T07:54:45.272Z,3.00
2022-08-04T07:57:19.449Z,2.22
2022-08-04T08:00:00.044Z,2.20
2022-08-04T08:02:28.357Z,2.40
2022-08-04T08:04:56.431Z,2.47
2022-08-04T08:07:24.402Z,3.60
2022-08-04T08:09:52.122Z,1.17
2022-08-04T08:12:35.711Z,3.20
2022-08-04T08:15:10.590Z,3.67
2022-08-04T08:17:57.914Z,1.42
2022-08-04T08:20:30.922Z,3.67
2022-08-04T08:23:01.891Z,1.50
2022-08-04T08:25:32.327Z,2.60
2022-08-04T08:28:04.274Z,0.98
2022-08-04T08:30:34.490Z,3.15
2022-08-04T08:33:06.317Z,2.20
2022-08-04T08:35:58.030Z,1.90
2022-08-04T08:38:40.806Z,2.35
2022-08-04T08:41:35.799Z,1.02
2022-08-04T08:44:36.591Z,2.35
2022-08-04T08:47:10.170Z,2.88
2022-08-04T08:50:04.623Z,1.10
2022-08-04T08:53:02.147Z,2.65
2022-08-04T08:55:37.773Z,1.83
2022-08-04T08:58:17.994Z,2.58
2022-08-04T09:01:05.098Z,3.92
2022-08-04T09:04:00.433Z,1.10
2022-08-04T09:06:48.441Z,2.60
2022-08-04T09:09:36.551Z,3.53
2022-08-04T09:12:39.408Z,1.15
2022-08-04T09:15:33.186Z,1.15
2022-08-04T09:18:19.606Z,2.97
2022-08-04T09:20:56.228Z,3.40
2022-08-04T09:23:57.171Z,1.40
2022-08-04T09:26:48.488Z,1.08
2022-08-04T09:29:27.770Z,1.73
2022-08-04T09:32:17.234Z,3.42
2022-08-04T09:35:24.147Z,2.25
2022-08-04T09:38:04.870Z,1.33
2022-08-04T09:40:55.621Z,1.10
2022-08-04T09:44:41.945Z,1.42
2022-08-04T09:46:55.874Z,1.98
2022-08-04T09:49:38.598Z,2.25
2022-08-04T09:52:33.109Z,1.15
2022-08-04T09:55:53.831Z,1.98
2022-08-04T09:58:37.399Z,1.02
2022-08-04T10:01:13.291Z,1.80
2022-08-04T10:03:49.231Z,1.02
2022-08-04T10:06:59.719Z,4.57
2022-08-04T10:09:50.515Z,3.78
2022-08-04T10:12:35.969Z,1.80
2022-08-04T10:15:17.315Z,1.48
2022-08-04T10:18:10.902Z,2.35
2022-08-04T10:21:14.882Z,5.25
2022-08-04T10:24:11.511Z,1.45
2022-08-04T10:26:46.172Z,4.38
2022-08-04T10:29:29.674Z,1.45
2022-08-04T10:32:16.510Z,1.73
2022-08-04T10:35:08.308Z,1.10
2022-08-04T10:37:59.026Z,5.38
2022-08-04T10:40:45.464Z,0.85
2022-08-04T10:43:35.795Z,1.30
2022-08-04T10:46:21.488Z,1.00
2022-08-04T10:48:52.110Z,1.73
2022-08-04T10:52:01.356Z,2.75
2022-08-04T10:54:35.709Z,1.05
2022-08-04T10:57:08.724Z,1.92
2022-08-04T11:00:03.052Z,2.50
2022-08-04T11:02:40.557Z,2.10
2022-08-04T11:05:13.247Z,1.60
2022-08-04T11:07:45.280Z,2.05
2022-08-04T11:10:17.371Z,2.65
2022-08-04T11:12:49.523Z,2.50
2022-08-04T11:15:30.799Z,1.80
2022-08-04T11:18:13.267Z,1.45
2022-08-04T11:21:15.837Z,2.65
2022-08-04T11:23:56.173Z,1.98
2022-08-04T11:26:47.042Z,2.03
2022-08-04T11:29:32.926Z,1.30
2022-08-04T11:32:03.968Z,2.38
2022-08-04T11:34:34.639Z,1.42
2022-08-04T11:37:23.196Z,1.05
2022-08-04T11:39:53.909Z,0.88
2022-08-04T11:42:28.150Z,4.60
2022-08-04T11:45:05.330Z,2.15
2022-08-04T11:47:38.874Z,3.92
2022-08-04T11:50:32.387Z,2.25
2022-08-04T11:53:02.499Z,2.25
2022-08-04T11:55:32.047Z,2.35
2022-08-04T11:58:21.340Z,1.45
2022-08-04T12:01:03.994Z,1.33
2022-08-04T12:03:37.506Z,1.55
2022-08-04T12:06:37.368Z,0.73
2022-08-04T12:09:46.932Z,1.55
2022-08-04T12:12:41.286Z,2.50
2022-08-04T12:15:26.220Z,1.33
2022-08-04T12:18:42.742Z,1.70
2022-08-04T12:21:26.640Z,1.20
2022-08-04T12:24:01.042Z,1.58
2022-08-04T12:26:38.499Z,3.10
2022-08-04T12:29:10.458Z,1.90
2022-08-04T12:31:48.287Z,1.23
2022-08-04T12:34:34.139Z,1.25
2022-08-04T12:37:22.077Z,2.97
2022-08-04T12:40:28.692Z,1.83
2022-08-04T12:43:08.930Z,1.77
2022-08-04T12:45:42.882Z,1.30
2022-08-04T12:48:21.807Z,1.67
2022-08-04T12:50:53.907Z,2.20
2022-08-04T12:53:32.142Z,3.03
2022-08-04T12:56:02.719Z,2.85
2022-08-04T12:58:42.898Z,4.10
2022-08-04T13:02:09.581Z,2.17
2022-08-04T13:04:18.231Z,2.67
2022-08-04T13:06:57.887Z,3.50
2022-08-04T13:09:32.943Z,4.72
2022-08-04T13:12:13.104Z,2.10
2022-08-04T13:14:46.248Z,2.25
2022-08-04T13:17:14.472Z,2.80
2022-08-04T13:19:56.326Z,2.20
2022-08-04T13:22:28.610Z,3.30
2022-08-04T13:26:40.266Z,2.45
2022-08-04T13:27:48.763Z,1.42
2022-08-04T13:30:25.730Z,2.50
2022-08-04T13:33:00.174Z,2.38
2022-08-04T13:35:55.381Z,1.52
2022-08-04T13:38:17.818Z,3.70
2022-08-04T13:40:47.182Z,2.10
2022-08-04T13:44:16.216Z,1.95
2022-08-04T13:46:27.978Z,6.25
2022-08-04T13:49:25.992Z,2.60
2022-08-04T13:51:59.127Z,2.20
2022-08-04T13:54:44.006Z,1.52
2022-08-04T13:57:19.538Z,2.50
2022-08-04T13:59:51.880Z,4.10
2022-08-04T14:02:49.966Z,2.35
2022-08-04T14:05:20.142Z,3.50
2022-08-04T14:08:12.007Z,1.50
2022-08-04T14:10:40.820Z,2.47
2022-08-04T14:13:08.462Z,1.80
2022-08-04T14:16:02.993Z,2.67
2022-08-04T14:18:32.588Z,2.17
2022-08-04T14:21:04.851Z,1.67
2022-08-04T14:23:58.537Z,2.22
2022-08-04T14:26:34.074Z,3.00
2022-08-04T14:29:27.532Z,1.38
2022-08-04T14:32:03.214Z,1.85
2022-08-04T14:34:33.452Z,2.25
2022-08-04T14:37:18.505Z,3.67
2022-08-04T14:40:17.256Z,4.07
2022-08-04T14:42:54.457Z,2.47
2022-08-04T14:45:54.547Z,1.70
2022-08-04T14:48:23.149Z,3.13
2022-08-04T14:50:52.528Z,3.40
2022-08-04T14:53:22.507Z,2.80
2022-08-04T14:55:56.545Z,2.20
2022-08-04T14:58:38.767Z,3.83
2022-08-04T15:01:12.201Z,2.53
2022-08-04T15:03:48.286Z,2.15
2022-08-04T15:06:24.014Z,2.50
2022-08-04T15:08:52.523Z,1.23
2022-08-04T15:11:23.506Z,4.15
2022-08-04T15:13:53.917Z,4.07
2022-08-04T15:16:24.491Z,2.08
2022-08-04T15:18:54.882Z,2.38
2022-08-04T15:21:28.344Z,1.77
2022-08-04T15:23:57.776Z,2.53
2022-08-04T15:26:47.652Z,1.67
2022-08-04T15:29:20.844Z,1.92
2022-08-04T15:32:07.906Z,2.05
2022-08-04T15:34:50.718Z,3.97
2022-08-04T15:37:49.442Z,1.40
2022-08-04T15:40:27.048Z,1.98
2022-08-04T15:43:30.153Z,2.00
2022-08-04T15:46:33.220Z,2.78
2022-08-04T15:48:47.956Z,1.77
2022-08-04T15:51:31.966Z,2.63
2022-08-04T15:54:02.658Z,3.42
2022-08-04T15:56:31.158Z,3.53
2022-08-04T15:58:59.366Z,1.88
2022-08-04T16:01:27.914Z,2.63
2022-08-04T16:03:59.970Z,5.50
2022-08-04T16:06:30.681Z,2.33
2022-08-04T16:09:05.159Z,2.75
2022-08-04T16:11:36.859Z,6.75
2022-08-04T16:14:05.435Z,3.65
2022-08-04T16:16:39.954Z,4.13
2022-08-04T16:19:16.707Z,1.58
2022-08-04T16:22:00.122Z,1.95
2022-08-04T16:24:41.706Z,1.90
2022-08-04T16:27:13.880Z,5.47
2022-08-04T16:29:49.371Z,1.38
2022-08-04T16:32:16.942Z,3.55
2022-08-04T16:35:17.441Z,3.42
2022-08-04T16:37:45.710Z,2.78
2022-08-04T16:40:38.880Z,3.05
2022-08-04T16:43:13.805Z,2.65
2022-08-04T16:45:45.801Z,3.95
2022-08-04T16:48:16.130Z,4.28
2022-08-04T16:51:06.468Z,5.13
2022-08-04T16:54:03.146Z,4.15
2022-08-04T16:56:35.320Z,4.97
2022-08-04T16:59:12.598Z,7.10
2022-08-04T17:01:51.526Z,8.88
2022-08-04T17:04:40.120Z,4.60
2022-08-04T17:07:08.839Z,4.28
2022-08-04T17:09:37.022Z,6.57
2022-08-04T17:12:04.960Z,4.50
2022-08-04T17:14:32.611Z,4.93
2022-08-04T17:17:02.543Z,7.55
2022-08-04T17:19:31.521Z,7.20
2022-08-04T17:22:10.858Z,7.32
2022-08-04T17:24:40.851Z,12.98
2022-08-04T17:28:20.120Z,21.42
2022-08-04T17:29:59.839Z,11.27
2022-08-04T17:32:28.299Z,15.27
2022-08-04T17:35:04.080Z,47.70
2022-08-04T17:37:38.096Z,49.28
2022-08-04T17:40:22.418Z,44.10
2022-08-04T17:44:01.258Z,58.80
2022-08-04T17:46:29.013Z,120.20
2022-08-04T17:49:01.247Z,10.38
2022-08-04T17:52:02.026Z,17.35
2022-08-04T17:54:36.537Z,25.40
2022-08-04T17:57:23.061Z,18.95
2022-08-04T17:59:59.125Z,15.40
2022-08-04T18:02:31.902Z,14.13
2022-08-04T18:05:06.995Z,7.82
2022-08-04T18:08:41.500Z,7.22
2022-08-04T18:10:52.379Z,5.70
2022-08-04T18:13:26.178Z,8.27
2022-08-04T18:16:06.191Z,8.65
2022-08-04T18:18:49.004Z,8.95
2022-08-04T18:21:18.430Z,3.85
2022-08-04T18:23:51.065Z,4.93
2022-08-04T18:26:23.557Z,4.18
2022-08-04T18:28:52.351Z,6.30
2022-08-04T18:31:21.404Z,4.13
2022-08-04T18:33:59.161Z,4.10
2022-08-04T18:36:35.283Z,4.32
2022-08-04T18:42:03.638Z,3.78
2022-08-04T18:44:52.469Z,6.03
2022-08-04T18:47:23.453Z,5.60
2022-08-04T18:50:59.843Z,4.28
2022-08-04T18:52:45.307Z,5.25
2022-08-04T18:55:56.149Z,6.10
2022-08-04T18:58:05.992Z,5.85
2022-08-04T19:00:35.426Z,6.03
2022-08-04T19:03:02.583Z,6.25
2022-08-04T19:05:38.133Z,7.15
2022-08-04T19:08:32.472Z,7.82
2022-08-04T19:11:00.085Z,4.75
2022-08-04T19:13:29.690Z,5.00
2022-08-04T19:16:03.082Z,5.55
2022-08-04T19:18:32.401Z,7.53
2022-08-04T19:21:05.329Z,4.50
2022-08-04T19:24:29.005Z,10.82
2022-08-04T19:26:28.091Z,5.93
2022-08-04T19:28:56.726Z,5.57
2022-08-04T19:31:34.121Z,5.70
2022-08-04T19:34:09.307Z,7.95
2022-08-04T19:36:38.215Z,4.47
2022-08-04T19:39:14.438Z,4.88
2022-08-04T19:42:06.158Z,4.47
2022-08-04T19:44:32.249Z,7.18
2022-08-04T19:47:00.420Z,5.78
2022-08-04T19:50:05.172Z,5.35
2022-08-04T19:52:33.489Z,6.93
2022-08-04T19:55:09.878Z,6.05
2022-08-04T19:57:49.565Z,7.00
2022-08-04T20:00:32.864Z,10.32
2022-08-04T20:03:02.987Z,5.30
2022-08-04T20:05:52.809Z,4.45
2022-08-04T20:08:20.326Z,4.47
2022-08-04T20:10:51.754Z,6.30
2022-08-04T20:13:20.866Z,6.88
2022-08-04T20:15:57.637Z,9.00
2022-08-04T20:18:35.560Z,7.75
2022-08-04T20:21:11.384Z,5.78
2022-08-04T20:23:50.170Z,6.15
2022-08-04T20:26:17.341Z,5.78
2022-08-04T20:28:45.870Z,6.07
2022-08-04T20:31:19.837Z,5.15
2022-08-04T20:33:53.576Z,4.97
2022-08-04T20:36:22.652Z,7.80
2022-08-04T20:38:52.858Z,5.45
2022-08-04T20:41:21.720Z,4.90
2022-08-04T20:43:50.754Z,6.30
2022-08-04T20:49:08.983Z,7.03
2022-08-04T20:51:43.291Z,4.93
2022-08-04T20:54:16.472Z,7.97
2022-08-04T20:56:51.222Z,7.53
2022-08-04T20:59:20.440Z,5.60
2022-08-04T21:01:49.034Z,8.02
2022-08-04T21:04:35.828Z,5.32
2022-08-04T21:07:06.147Z,5.15
2022-08-04T21:09:38.287Z,5.20
2022-08-04T21:15:14.452Z,5.75
2022-08-04T21:20:33.351Z,7.43
2022-08-04T21:23:03.736Z,5.20
2022-08-04T21:25:39.121Z,6.55
2022-08-04T21:28:12.547Z,5.55
2022-08-04T21:30:54.091Z,6.07
2022-08-04T21:33:24.564Z,6.97
2022-08-04T21:36:12.518Z,7.68
2022-08-04T21:41:29.422Z,6.75
2022-08-04T21:43:58.841Z,6.13
2022-08-04T21:46:27.235Z,8.00
2022-08-04T21:48:59.346Z,6.70
2022-08-04T21:52:00.347Z,6.43
2022-08-04T21:54:19.189Z,7.93
2022-08-04T21:56:50.910Z,7.40
2022-08-04T21:59:24.319Z,7.43
2022-08-04T22:02:00.639Z,8.55
2022-08-04T22:04:30.354Z,8.55
2022-08-04T22:06:58.361Z,8.43
2022-08-04T22:09:38.911Z,7.35
2022-08-04T22:12:10.380Z,10.05
2022-08-04T22:14:40.064Z,9.00
2022-08-04T22:17:13.629Z,9.52
2022-08-04T22:22:30.142Z,9.80
2022-08-04T22:25:06.135Z,8.77
2022-08-04T22:28:01.703Z,10.10
2022-08-04T22:30:37.567Z,10.80
2022-08-04T22:33:08.336Z,8.23
2022-08-04T22:35:44.037Z,7.35
2022-08-04T22:38:24.062Z,9.00
2022-08-04T22:41:04.913Z,8.43
2022-08-04T22:43:34.799Z,8.40
2022-08-04T22:46:05.071Z,9.07
2022-08-04T22:48:36.173Z,8.10
2022-08-04T22:51:06.509Z,8.50
2022-08-04T22:53:35.681Z,12.30
2022-08-04T22:56:09.728Z,7.90
2022-08-04T22:58:45.816Z,8.23
2022-08-04T23:01:18.411Z,9.07
2022-08-04T23:03:50.854Z,10.27
2022-08-04T23:06:25.708Z,8.15
2022-08-04T23:08:57.926Z,8.23
2022-08-04T23:11:34.711Z,8.68
2022-08-04T23:14:05.404Z,8.70
2022-08-04T23:16:33.237Z,8.50
2022-08-04T23:19:15.134Z,8.32
2022-08-04T23:21:47.904Z,8.93
2022-08-04T23:24:29.706Z,10.18
2022-08-04T23:26:59.626Z,8.52
2022-08-04T23:29:52.718Z,8.77
2022-08-04T23:32:16.109Z,7.93
2022-08-04T23:34:48.689Z,8.20
2022-08-04T23:37:16.442Z,8.65
2022-08-04T23:40:17.858Z,8.57
2022-08-04T23:42:32.309Z,8.25
2022-08-04T23:45:01.529Z,8.30
2022-08-04T23:48:14.656Z,8.75
2022-08-04T23:50:18.143Z,8.40
2022-08-04T23:52:45.740Z,9.10
2022-08-04T23:55:18.989Z,9.80
2022-08-04T23:58:06.078Z,10.68
